sensor_id;sensor_type;location;lat;lon;timestamp;pressure;altitude;pressure_sealevel;temperature;humidity
49583;BME280;36329;48.816;44.624;2024-01-15T00:01:47;101203;;;-8.2;100
49583;BME280;36329;48.816;44.624;2024-01-15T00:04:49;101191;;;-8.2;100
49583;BME280;36329;48.816;44.624;2024-01-15T00:07:52;101206;;;-8.1;100
49583;BME280;36329;48.816;44.624;2024-01-15T00:10:54;101197;;;-8.2;100
49583;BME280;36329;48.816;44.624;2024-01-15T00:13:56;101172;;;-8.2;100
49583;BME280;36329;48.816;44.624;2024-01-15T00:16:58;101176;;;-8.1;100
49583;BME280;36329;48.816;44.624;2024-01-15T00:20:00;101171;;;-8.2;100
49583;BME280;36329;48.816;44.624;2024-01-15T00:23:03;101164;;;-8.1;100
49583;BME280;36329;48.816;44.624;2024-01-15T00:26:06;101175;;;-8.2;100
49583;BME280;36329;48.816;44.624;2024-01-15T00:29:08;101183;;;-8.1;100
49583;BME280;36329;48.816;44.624;2024-01-15T00:32:11;101178;;;-8.1;100
49583;BME280;36329;48.816;44.624;2024-01-15T00:35:13;101180;;;-8.1;100
49583;BME280;36329;48.816;44.624;2024-01-15T00:38:15;101182;;;-8;100
49583;BME280;36329;48.816;44.624;2024-01-15T00:41:17;101182;;;-7.9;100
49583;BME280;36329;48.816;44.624;2024-01-15T00:44:19;101179;;;-7.8;100
49583;BME280;36329;48.816;44.624;2024-01-15T00:47:22;101177;;;-7.8;100
49583;BME280;36329;48.816;44.624;2024-01-15T00:50:24;101179;;;-7.8;100
49583;BME280;36329;48.816;44.624;2024-01-15T00:53:26;101165;;;-7.8;100
49583;BME280;36329;48.816;44.624;2024-01-15T00:56:29;101159;;;-7.8;100
49583;BME280;36329;48.816;44.624;2024-01-15T00:59:31;101149;;;-7.6;100
49583;BME280;36329;48.816;44.624;2024-01-15T01:02:33;101142;;;-7.6;100
49583;BME280;36329;48.816;44.624;2024-01-15T01:05:35;101147;;;-7.6;100
49583;BME280;36329;48.816;44.624;2024-01-15T01:08:38;101125;;;-7.6;100
49583;BME280;36329;48.816;44.624;2024-01-15T01:11:40;101124;;;-7.5;100
49583;BME280;36329;48.816;44.624;2024-01-15T01:14:42;101122;;;-7.5;100
49583;BME280;36329;48.816;44.624;2024-01-15T01:17:44;101119;;;-7.4;100
49583;BME280;36329;48.816;44.624;2024-01-15T01:20:47;101124;;;-7.3;100
49583;BME280;36329;48.816;44.624;2024-01-15T01:23:49;101108;;;-7.3;100
49583;BME280;36329;48.816;44.624;2024-01-15T01:26:52;101114;;;-7.2;100
49583;BME280;36329;48.816;44.624;2024-01-15T01:29:55;101107;;;-7.2;100
49583;BME280;36329;48.816;44.624;2024-01-15T01:32:57;101097;;;-7.1;100
49583;BME280;36329;48.816;44.624;2024-01-15T01:35:59;101077;;;-7.1;100
49583;BME280;36329;48.816;44.624;2024-01-15T01:39:01;101075;;;-7.1;100
49583;BME280;36329;48.816;44.624;2024-01-15T01:42:04;101073;;;-7.1;100
49583;BME280;36329;48.816;44.624;2024-01-15T01:45:07;101073;;;-7.1;100
49583;BME280;36329;48.816;44.624;2024-01-15T01:48:09;101077;;;-7;100
49583;BME280;36329;48.816;44.624;2024-01-15T01:51:13;101075;;;-7;100
49583;BME280;36329;48.816;44.624;2024-01-15T01:54:15;101062;;;-6.9;100
49583;BME280;36329;48.816;44.624;2024-01-15T01:57:18;101075;;;-6.9;100
49583;BME280;36329;48.816;44.624;2024-01-15T02:00:21;101067;;;-6.9;100
49583;BME280;36329;48.816;44.624;2024-01-15T02:03:23;101049;;;-6.8;100
49583;BME280;36329;48.816;44.624;2024-01-15T02:06:25;101056;;;-6.8;100
49583;BME280;36329;48.816;44.624;2024-01-15T02:09:27;101047;;;-6.8;100
49583;BME280;36329;48.816;44.624;2024-01-15T02:12:29;101047;;;-6.8;100
49583;BME280;36329;48.816;44.624;2024-01-15T02:15:31;101065;;;-6.8;100
49583;BME280;36329;48.816;44.624;2024-01-15T02:18:40;101050;;;-6.8;100
49583;BME280;36329;48.816;44.624;2024-01-15T02:21:57;101050;;;-6.7;100
49583;BME280;36329;48.816;44.624;2024-01-15T02:25:00;101069;;;-6.7;100
49583;BME280;36329;48.816;44.624;2024-01-15T02:28:02;101049;;;-6.7;100
49583;BME280;36329;48.816;44.624;2024-01-15T02:31:05;101033;;;-6.7;100
49583;BME280;36329;48.816;44.624;2024-01-15T02:34:07;101044;;;-6.7;100
49583;BME280;36329;48.816;44.624;2024-01-15T02:37:10;101045;;;-6.6;100
49583;BME280;36329;48.816;44.624;2024-01-15T02:40:12;101033;;;-6.6;100
49583;BME280;36329;48.816;44.624;2024-01-15T02:43:14;101033;;;-6.6;100
49583;BME280;36329;48.816;44.624;2024-01-15T02:46:16;101022;;;-6.6;100
49583;BME280;36329;48.816;44.624;2024-01-15T02:49:19;101022;;;-6.5;100
49583;BME280;36329;48.816;44.624;2024-01-15T02:52:21;101011;;;-6.5;100
49583;BME280;36329;48.816;44.624;2024-01-15T02:55:23;101002;;;-6.5;100
49583;BME280;36329;48.816;44.624;2024-01-15T02:58:26;100983;;;-6.4;100
49583;BME280;36329;48.816;44.624;2024-01-15T03:01:28;101001;;;-6.4;100
49583;BME280;36329;48.816;44.624;2024-01-15T03:04:30;100989;;;-6.4;100
49583;BME280;36329;48.816;44.624;2024-01-15T03:07:33;100982;;;-6.4;100
49583;BME280;36329;48.816;44.624;2024-01-15T03:10:35;101005;;;-6.4;100
49583;BME280;36329;48.816;44.624;2024-01-15T03:13:37;100966;;;-6.3;100
49583;BME280;36329;48.816;44.624;2024-01-15T03:16:39;100980;;;-6.2;100
49583;BME280;36329;48.816;44.624;2024-01-15T03:19:42;100960;;;-6.2;100
49583;BME280;36329;48.816;44.624;2024-01-15T03:22:45;100981;;;-6.1;100
49583;BME280;36329;48.816;44.624;2024-01-15T03:25:47;100973;;;-6.1;100
49583;BME280;36329;48.816;44.624;2024-01-15T03:28:49;100974;;;-6;100
49583;BME280;36329;48.816;44.624;2024-01-15T03:31:51;100982;;;-6;100
49583;BME280;36329;48.816;44.624;2024-01-15T03:34:53;100953;;;-6;100
49583;BME280;36329;48.816;44.624;2024-01-15T03:37:56;100968;;;-5.9;100
49583;BME280;36329;48.816;44.624;2024-01-15T03:40:58;100957;;;-6;100
49583;BME280;36329;48.816;44.624;2024-01-15T03:44:00;100922;;;-5.9;100
49583;BME280;36329;48.816;44.624;2024-01-15T03:47:02;100963;;;-5.9;100
49583;BME280;36329;48.816;44.624;2024-01-15T03:50:05;100941;;;-5.8;100
49583;BME280;36329;48.816;44.624;2024-01-15T03:53:07;100946;;;-5.8;100
49583;BME280;36329;48.816;44.624;2024-01-15T03:56:10;100956;;;-5.8;100
49583;BME280;36329;48.816;44.624;2024-01-15T03:59:12;100953;;;-5.8;100
49583;BME280;36329;48.816;44.624;2024-01-15T04:02:14;100976;;;-5.8;100
49583;BME280;36329;48.816;44.624;2024-01-15T04:05:17;100946;;;-5.7;100
49583;BME280;36329;48.816;44.624;2024-01-15T04:08:19;100936;;;-5.7;100
49583;BME280;36329;48.816;44.624;2024-01-15T04:11:22;100996;;;-5.7;100
49583;BME280;36329;48.816;44.624;2024-01-15T04:14:24;100948;;;-5.6;100
49583;BME280;36329;48.816;44.624;2024-01-15T04:17:27;100950;;;-5.6;100
49583;BME280;36329;48.816;44.624;2024-01-15T04:20:29;100977;;;-5.6;100
49583;BME280;36329;48.816;44.624;2024-01-15T04:23:32;100940;;;-5.6;100
49583;BME280;36329;48.816;44.624;2024-01-15T04:26:34;100946;;;-5.6;100
49583;BME280;36329;48.816;44.624;2024-01-15T04:29:37;100959;;;-5.5;100
49583;BME280;36329;48.816;44.624;2024-01-15T04:32:40;100934;;;-5.5;100
49583;BME280;36329;48.816;44.624;2024-01-15T04:35:42;100946;;;-5.5;100
49583;BME280;36329;48.816;44.624;2024-01-15T04:38:45;100946;;;-5.4;100
49583;BME280;36329;48.816;44.624;2024-01-15T04:41:47;100952;;;-5.4;100
49583;BME280;36329;48.816;44.624;2024-01-15T04:44:50;100949;;;-5.4;100
49583;BME280;36329;48.816;44.624;2024-01-15T04:47:52;100968;;;-5.4;100
49583;BME280;36329;48.816;44.624;2024-01-15T04:50:55;100944;;;-5.3;100
49583;BME280;36329;48.816;44.624;2024-01-15T04:53:57;100975;;;-5.3;100
49583;BME280;36329;48.816;44.624;2024-01-15T04:56:59;100952;;;-5.3;100
49583;BME280;36329;48.816;44.624;2024-01-15T05:00:01;100964;;;-5.3;100
49583;BME280;36329;48.816;44.624;2024-01-15T05:03:06;100980;;;-5.3;100
49583;BME280;36329;48.816;44.624;2024-01-15T05:06:08;101007;;;-5.2;100
49583;BME280;36329;48.816;44.624;2024-01-15T05:09:11;100997;;;-5.2;100
49583;BME280;36329;48.816;44.624;2024-01-15T05:12:13;100968;;;-5.1;100
49583;BME280;36329;48.816;44.624;2024-01-15T05:15:15;100990;;;-5.1;100
49583;BME280;36329;48.816;44.624;2024-01-15T05:18:17;100990;;;-5.1;100
49583;BME280;36329;48.816;44.624;2024-01-15T05:21:19;100989;;;-5.1;100
49583;BME280;36329;48.816;44.624;2024-01-15T05:24:21;100998;;;-4.9;100
49583;BME280;36329;48.816;44.624;2024-01-15T05:27:24;101020;;;-4.9;100
49583;BME280;36329;48.816;44.624;2024-01-15T05:30:27;100991;;;-4.9;100
49583;BME280;36329;48.816;44.624;2024-01-15T05:33:29;101002;;;-4.9;100
49583;BME280;36329;48.816;44.624;2024-01-15T05:36:31;100998;;;-4.8;100
49583;BME280;36329;48.816;44.624;2024-01-15T05:39:33;101006;;;-4.7;100
49583;BME280;36329;48.816;44.624;2024-01-15T05:42:35;101014;;;-4.7;100
49583;BME280;36329;48.816;44.624;2024-01-15T05:45:38;101004;;;-4.6;100
49583;BME280;36329;48.816;44.624;2024-01-15T05:48:45;101000;;;-4.6;100
49583;BME280;36329;48.816;44.624;2024-01-15T05:51:47;100997;;;-4.5;100
49583;BME280;36329;48.816;44.624;2024-01-15T05:54:50;101016;;;-4.4;100
49583;BME280;36329;48.816;44.624;2024-01-15T05:57:52;100984;;;-4.4;100
49583;BME280;36329;48.816;44.624;2024-01-15T06:00:54;100990;;;-4.4;100
49583;BME280;36329;48.816;44.624;2024-01-15T06:03:57;100997;;;-4.3;100
49583;BME280;36329;48.816;44.624;2024-01-15T06:06:59;100976;;;-4.3;100
49583;BME280;36329;48.816;44.624;2024-01-15T06:10:01;100969;;;-4.3;100
49583;BME280;36329;48.816;44.624;2024-01-15T06:13:06;101002;;;-4.2;100
49583;BME280;36329;48.816;44.624;2024-01-15T06:16:13;100974;;;-4.2;100
49583;BME280;36329;48.816;44.624;2024-01-15T06:19:16;100959;;;-4.2;100
49583;BME280;36329;48.816;44.624;2024-01-15T06:22:18;100976;;;-4.1;100
49583;BME280;36329;48.816;44.624;2024-01-15T06:25:20;100974;;;-4.1;100
49583;BME280;36329;48.816;44.624;2024-01-15T06:28:23;100961;;;-4.1;100
49583;BME280;36329;48.816;44.624;2024-01-15T06:31:25;100959;;;-4;100
49583;BME280;36329;48.816;44.624;2024-01-15T06:34:27;100967;;;-4;100
49583;BME280;36329;48.816;44.624;2024-01-15T06:37:29;100982;;;-3.9;100
49583;BME280;36329;48.816;44.624;2024-01-15T06:40:31;100936;;;-3.9;100
49583;BME280;36329;48.816;44.624;2024-01-15T06:43:33;100941;;;-3.9;100
49583;BME280;36329;48.816;44.624;2024-01-15T06:46:36;100939;;;-3.8;100
49583;BME280;36329;48.816;44.624;2024-01-15T06:49:38;100943;;;-3.8;100
49583;BME280;36329;48.816;44.624;2024-01-15T06:52:40;100907;;;-3.8;100
49583;BME280;36329;48.816;44.624;2024-01-15T06:55:42;100938;;;-3.7;100
49583;BME280;36329;48.816;44.624;2024-01-15T06:58:46;100949;;;-3.6;100
49583;BME280;36329;48.816;44.624;2024-01-15T07:01:48;100908;;;-3.6;100
49583;BME280;36329;48.816;44.624;2024-01-15T07:04:50;100908;;;-3.5;100
49583;BME280;36329;48.816;44.624;2024-01-15T07:07:53;100931;;;-3.5;100
49583;BME280;36329;48.816;44.624;2024-01-15T07:10:55;100934;;;-3.4;100
49583;BME280;36329;48.816;44.624;2024-01-15T07:13:57;100863;;;-3.4;100
49583;BME280;36329;48.816;44.624;2024-01-15T07:16:59;100910;;;-3.3;100
49583;BME280;36329;48.816;44.624;2024-01-15T07:20:03;100919;;;-3.2;100
49583;BME280;36329;48.816;44.624;2024-01-15T07:23:06;100902;;;-3.3;100
49583;BME280;36329;48.816;44.624;2024-01-15T07:26:08;100911;;;-3.3;100
49583;BME280;36329;48.816;44.624;2024-01-15T07:29:10;100906;;;-3.2;100
49583;BME280;36329;48.816;44.624;2024-01-15T07:32:13;100887;;;-3.1;100
49583;BME280;36329;48.816;44.624;2024-01-15T07:35:16;100890;;;-3;100
49583;BME280;36329;48.816;44.624;2024-01-15T07:38:18;100884;;;-3;100
49583;BME280;36329;48.816;44.624;2024-01-15T07:41:20;100921;;;-3;100
49583;BME280;36329;48.816;44.624;2024-01-15T07:44:22;100914;;;-2.9;100
49583;BME280;36329;48.816;44.624;2024-01-15T07:47:25;100903;;;-2.9;100
49583;BME280;36329;48.816;44.624;2024-01-15T07:50:27;100843;;;-2.8;100
49583;BME280;36329;48.816;44.624;2024-01-15T07:53:30;100914;;;-2.8;100
49583;BME280;36329;48.816;44.624;2024-01-15T07:56:33;100856;;;-2.8;100
49583;BME280;36329;48.816;44.624;2024-01-15T07:59:35;100858;;;-2.7;100
49583;BME280;36329;48.816;44.624;2024-01-15T08:02:38;100901;;;-2.6;100
49583;BME280;36329;48.816;44.624;2024-01-15T08:05:40;100899;;;-2.6;100
49583;BME280;36329;48.816;44.624;2024-01-15T08:08:42;100839;;;-2.6;100
49583;BME280;36329;48.816;44.624;2024-01-15T08:11:44;100885;;;-2.5;100
49583;BME280;36329;48.816;44.624;2024-01-15T08:14:46;100884;;;-2.5;100
49583;BME280;36329;48.816;44.624;2024-01-15T08:17:49;100867;;;-2.4;100
49583;BME280;36329;48.816;44.624;2024-01-15T08:20:52;100822;;;-2.3;100
49583;BME280;36329;48.816;44.624;2024-01-15T08:23:54;100856;;;-2.2;100
49583;BME280;36329;48.816;44.624;2024-01-15T08:26:57;100872;;;-2.2;100
49583;BME280;36329;48.816;44.624;2024-01-15T08:29:59;100851;;;-2.2;100
49583;BME280;36329;48.816;44.624;2024-01-15T08:33:01;100828;;;-2.2;100
49583;BME280;36329;48.816;44.624;2024-01-15T08:36:04;100883;;;-2.2;100
49583;BME280;36329;48.816;44.624;2024-01-15T08:39:06;100840;;;-2.2;100
49583;BME280;36329;48.816;44.624;2024-01-15T08:42:08;100856;;;-2.1;100
49583;BME280;36329;48.816;44.624;2024-01-15T08:45:12;100841;;;-2.1;100
49583;BME280;36329;48.816;44.624;2024-01-15T08:48:14;100843;;;-2.2;100
49583;BME280;36329;48.816;44.624;2024-01-15T08:51:16;100842;;;-2.2;100
49583;BME280;36329;48.816;44.624;2024-01-15T08:54:19;100859;;;-2.2;100
49583;BME280;36329;48.816;44.624;2024-01-15T08:57:23;100837;;;-2.2;100
49583;BME280;36329;48.816;44.624;2024-01-15T09:00:26;100848;;;-2.2;100
49583;BME280;36329;48.816;44.624;2024-01-15T09:03:28;100841;;;-2;100
49583;BME280;36329;48.816;44.624;2024-01-15T09:06:30;100855;;;-2;100
49583;BME280;36329;48.816;44.624;2024-01-15T09:09:32;100878;;;-2;100
49583;BME280;36329;48.816;44.624;2024-01-15T09:12:34;100876;;;-2;100
49583;BME280;36329;48.816;44.624;2024-01-15T09:15:37;100849;;;-2;100
49583;BME280;36329;48.816;44.624;2024-01-15T09:18:39;100862;;;-1.9;100
49583;BME280;36329;48.816;44.624;2024-01-15T09:21:41;100852;;;-1.9;100
49583;BME280;36329;48.816;44.624;2024-01-15T09:24:45;100864;;;-1.9;100
49583;BME280;36329;48.816;44.624;2024-01-15T09:27:48;100847;;;-1.8;100
49583;BME280;36329;48.816;44.624;2024-01-15T09:30:50;100834;;;-1.7;100
49583;BME280;36329;48.816;44.624;2024-01-15T09:33:52;100843;;;-1.7;100
49583;BME280;36329;48.816;44.624;2024-01-15T09:36:55;100868;;;-1.7;100
49583;BME280;36329;48.816;44.624;2024-01-15T09:39:57;100822;;;-1.7;100
49583;BME280;36329;48.816;44.624;2024-01-15T09:43:00;100825;;;-1.7;100
49583;BME280;36329;48.816;44.624;2024-01-15T09:46:03;100852;;;-1.6;100
49583;BME280;36329;48.816;44.624;2024-01-15T09:49:06;100833;;;-1.6;100
49583;BME280;36329;48.816;44.624;2024-01-15T09:52:10;100848;;;-1.5;100
49583;BME280;36329;48.816;44.624;2024-01-15T09:55:13;100851;;;-1.5;100
49583;BME280;36329;48.816;44.624;2024-01-15T09:58:17;100862;;;-1.5;100
49583;BME280;36329;48.816;44.624;2024-01-15T10:01:20;100808;;;-1.5;100
49583;BME280;36329;48.816;44.624;2024-01-15T10:04:23;100818;;;-1.5;100
49583;BME280;36329;48.816;44.624;2024-01-15T10:07:35;100851;;;-1.4;100
49583;BME280;36329;48.816;44.624;2024-01-15T10:10:38;100807;;;-1.3;100
49583;BME280;36329;48.816;44.624;2024-01-15T10:13:41;100818;;;-1.3;100
49583;BME280;36329;48.816;44.624;2024-01-15T10:16:43;100829;;;-1.3;100
49583;BME280;36329;48.816;44.624;2024-01-15T10:19:45;100810;;;-1.4;100
49583;BME280;36329;48.816;44.624;2024-01-15T10:22:48;100827;;;-1.4;100
49583;BME280;36329;48.816;44.624;2024-01-15T10:25:50;100819;;;-1.3;100
49583;BME280;36329;48.816;44.624;2024-01-15T10:28:52;100797;;;-1.4;100
49583;BME280;36329;48.816;44.624;2024-01-15T10:31:54;100793;;;-1.5;100
49583;BME280;36329;48.816;44.624;2024-01-15T10:34:57;100823;;;-1.5;100
49583;BME280;36329;48.816;44.624;2024-01-15T10:37:59;100810;;;-1.6;100
49583;BME280;36329;48.816;44.624;2024-01-15T10:41:01;100803;;;-1.4;100
49583;BME280;36329;48.816;44.624;2024-01-15T10:44:04;100812;;;-1.5;100
49583;BME280;36329;48.816;44.624;2024-01-15T10:47:06;100816;;;-1.5;100
49583;BME280;36329;48.816;44.624;2024-01-15T10:50:09;100810;;;-1.4;100
49583;BME280;36329;48.816;44.624;2024-01-15T10:53:12;100806;;;-1.4;100
49583;BME280;36329;48.816;44.624;2024-01-15T10:56:15;100802;;;-1.4;100
49583;BME280;36329;48.816;44.624;2024-01-15T10:59:20;100811;;;-1.4;100
49583;BME280;36329;48.816;44.624;2024-01-15T11:02:22;100813;;;-1.4;100
49583;BME280;36329;48.816;44.624;2024-01-15T11:05:25;100833;;;-1.4;100
49583;BME280;36329;48.816;44.624;2024-01-15T11:08:28;100839;;;-1.5;100
49583;BME280;36329;48.816;44.624;2024-01-15T11:11:34;100828;;;-1.5;100
49583;BME280;36329;48.816;44.624;2024-01-15T11:14:40;100826;;;-1.6;100
49583;BME280;36329;48.816;44.624;2024-01-15T11:18:01;100842;;;-1.6;100
49583;BME280;36329;48.816;44.624;2024-01-15T11:21:20;100842;;;-1.6;100
49583;BME280;36329;48.816;44.624;2024-01-15T11:24:39;100840;;;-1.5;100
49583;BME280;36329;48.816;44.624;2024-01-15T11:27:44;100845;;;-1.5;100
49583;BME280;36329;48.816;44.624;2024-01-15T11:30:47;100843;;;-1.5;100
49583;BME280;36329;48.816;44.624;2024-01-15T11:33:55;100831;;;-1.5;100
49583;BME280;36329;48.816;44.624;2024-01-15T11:37:02;100831;;;-1.4;100
49583;BME280;36329;48.816;44.624;2024-01-15T11:40:05;100841;;;-1.4;100
49583;BME280;36329;48.816;44.624;2024-01-15T11:43:08;100855;;;-1.4;100
49583;BME280;36329;48.816;44.624;2024-01-15T11:46:12;100842;;;-1.5;100
49583;BME280;36329;48.816;44.624;2024-01-15T11:49:25;100855;;;-1.4;100
49583;BME280;36329;48.816;44.624;2024-01-15T11:52:36;100839;;;-1.4;100
49583;BME280;36329;48.816;44.624;2024-01-15T11:55:43;100853;;;-1.4;100
49583;BME280;36329;48.816;44.624;2024-01-15T11:58:46;100854;;;-1.3;100
49583;BME280;36329;48.816;44.624;2024-01-15T12:01:48;100865;;;-1.4;100
49583;BME280;36329;48.816;44.624;2024-01-15T12:04:51;100863;;;-1.4;100
49583;BME280;36329;48.816;44.624;2024-01-15T12:07:53;100865;;;-1.3;100
49583;BME280;36329;48.816;44.624;2024-01-15T12:10:55;100856;;;-1.2;100
49583;BME280;36329;48.816;44.624;2024-01-15T12:13:57;100858;;;-1.2;100
49583;BME280;36329;48.816;44.624;2024-01-15T12:17:00;100860;;;-1.1;100
49583;BME280;36329;48.816;44.624;2024-01-15T12:20:02;100860;;;-1.1;100
49583;BME280;36329;48.816;44.624;2024-01-15T12:23:05;100867;;;-1.1;100
49583;BME280;36329;48.816;44.624;2024-01-15T12:26:07;100868;;;-1;100
49583;BME280;36329;48.816;44.624;2024-01-15T12:29:10;100871;;;-0.9;100
49583;BME280;36329;48.816;44.624;2024-01-15T12:32:12;100863;;;-0.9;100
49583;BME280;36329;48.816;44.624;2024-01-15T12:35:15;100876;;;-0.8;100
49583;BME280;36329;48.816;44.624;2024-01-15T12:38:19;100861;;;-0.8;100
49583;BME280;36329;48.816;44.624;2024-01-15T12:41:21;100868;;;-0.8;100
49583;BME280;36329;48.816;44.624;2024-01-15T12:44:23;100880;;;-0.8;100
49583;BME280;36329;48.816;44.624;2024-01-15T12:47:25;100904;;;-0.8;100
49583;BME280;36329;48.816;44.624;2024-01-15T12:50:28;100896;;;-0.9;100
49583;BME280;36329;48.816;44.624;2024-01-15T12:53:30;100905;;;-0.8;100
49583;BME280;36329;48.816;44.624;2024-01-15T12:56:32;100904;;;-0.7;100
49583;BME280;36329;48.816;44.624;2024-01-15T12:59:35;100904;;;-0.6;100
49583;BME280;36329;48.816;44.624;2024-01-15T13:02:38;100902;;;-0.7;100
49583;BME280;36329;48.816;44.624;2024-01-15T13:05:41;100909;;;-0.6;100
49583;BME280;36329;48.816;44.624;2024-01-15T13:08:43;100913;;;-0.7;100
49583;BME280;36329;48.816;44.624;2024-01-15T13:11:46;100908;;;-0.7;100
49583;BME280;36329;48.816;44.624;2024-01-15T13:14:49;100904;;;-0.8;100
49583;BME280;36329;48.816;44.624;2024-01-15T13:17:51;100906;;;-0.7;100
49583;BME280;36329;48.816;44.624;2024-01-15T13:20:53;100906;;;-0.7;100
49583;BME280;36329;48.816;44.624;2024-01-15T13:23:56;100897;;;-0.7;100
49583;BME280;36329;48.816;44.624;2024-01-15T13:26:58;100916;;;-0.7;100
49583;BME280;36329;48.816;44.624;2024-01-15T13:30:01;100920;;;-0.7;100
49583;BME280;36329;48.816;44.624;2024-01-15T13:33:07;100910;;;-0.8;100
49583;BME280;36329;48.816;44.624;2024-01-15T13:36:10;100911;;;-0.6;100
49583;BME280;36329;48.816;44.624;2024-01-15T13:39:12;100914;;;-0.6;100
49583;BME280;36329;48.816;44.624;2024-01-15T13:42:15;100913;;;-0.7;100
49583;BME280;36329;48.816;44.624;2024-01-15T13:45:18;100908;;;-0.7;100
49583;BME280;36329;48.816;44.624;2024-01-15T13:48:21;100907;;;-0.7;100
49583;BME280;36329;48.816;44.624;2024-01-15T13:51:23;100896;;;-0.7;100
49583;BME280;36329;48.816;44.624;2024-01-15T13:54:26;100894;;;-0.7;100
49583;BME280;36329;48.816;44.624;2024-01-15T13:57:28;100905;;;-0.7;100
49583;BME280;36329;48.816;44.624;2024-01-15T14:00:31;100900;;;-0.7;100
49583;BME280;36329;48.816;44.624;2024-01-15T14:03:34;100907;;;-0.8;100
49583;BME280;36329;48.816;44.624;2024-01-15T14:06:37;100899;;;-0.7;100
49583;BME280;36329;48.816;44.624;2024-01-15T14:09:39;100903;;;-0.6;100
49583;BME280;36329;48.816;44.624;2024-01-15T14:12:42;100910;;;-0.6;100
49583;BME280;36329;48.816;44.624;2024-01-15T14:15:47;100920;;;-0.7;100
49583;BME280;36329;48.816;44.624;2024-01-15T14:18:50;100933;;;-0.7;100
49583;BME280;36329;48.816;44.624;2024-01-15T14:21:53;100937;;;-0.7;100
49583;BME280;36329;48.816;44.624;2024-01-15T14:24:55;100934;;;-0.8;100
49583;BME280;36329;48.816;44.624;2024-01-15T14:27:57;100938;;;-0.7;100
49583;BME280;36329;48.816;44.624;2024-01-15T14:31:00;100931;;;-0.7;100
49583;BME280;36329;48.816;44.624;2024-01-15T14:34:05;100924;;;-0.7;100
49583;BME280;36329;48.816;44.624;2024-01-15T14:37:07;100924;;;-0.7;100
49583;BME280;36329;48.816;44.624;2024-01-15T14:40:10;100929;;;-0.8;100
49583;BME280;36329;48.816;44.624;2024-01-15T14:43:12;100925;;;-0.8;100
49583;BME280;36329;48.816;44.624;2024-01-15T14:46:15;100927;;;-0.8;100
49583;BME280;36329;48.816;44.624;2024-01-15T14:49:17;100931;;;-0.8;100
49583;BME280;36329;48.816;44.624;2024-01-15T14:52:20;100944;;;-0.8;100
49583;BME280;36329;48.816;44.624;2024-01-15T14:55:22;100924;;;-0.8;100
49583;BME280;36329;48.816;44.624;2024-01-15T14:58:24;100926;;;-0.8;100
49583;BME280;36329;48.816;44.624;2024-01-15T15:01:26;100926;;;-0.7;100
49583;BME280;36329;48.816;44.624;2024-01-15T15:04:28;100938;;;-0.7;100
49583;BME280;36329;48.816;44.624;2024-01-15T15:07:31;100921;;;-0.8;100
49583;BME280;36329;48.816;44.624;2024-01-15T15:10:33;100933;;;-0.8;100
49583;BME280;36329;48.816;44.624;2024-01-15T15:13:35;100937;;;-0.6;100
49583;BME280;36329;48.816;44.624;2024-01-15T15:16:38;100946;;;-0.8;100
49583;BME280;36329;48.816;44.624;2024-01-15T15:19:40;100924;;;-0.8;100
49583;BME280;36329;48.816;44.624;2024-01-15T15:22:42;100944;;;-0.6;100
49583;BME280;36329;48.816;44.624;2024-01-15T15:25:44;100937;;;-0.7;100
49583;BME280;36329;48.816;44.624;2024-01-15T15:28:47;100947;;;-0.7;100
49583;BME280;36329;48.816;44.624;2024-01-15T15:31:49;100946;;;-0.6;100
49583;BME280;36329;48.816;44.624;2024-01-15T15:34:52;100952;;;-0.6;100
49583;BME280;36329;48.816;44.624;2024-01-15T15:37:54;100949;;;-0.6;100
49583;BME280;36329;48.816;44.624;2024-01-15T15:40:57;100959;;;-0.6;100
49583;BME280;36329;48.816;44.624;2024-01-15T15:44:00;100954;;;-0.4;100
49583;BME280;36329;48.816;44.624;2024-01-15T15:47:03;100953;;;-0.5;100
49583;BME280;36329;48.816;44.624;2024-01-15T15:50:06;100950;;;-0.6;100
49583;BME280;36329;48.816;44.624;2024-01-15T15:53:08;100946;;;-0.6;100
49583;BME280;36329;48.816;44.624;2024-01-15T15:56:11;100949;;;-0.6;100
49583;BME280;36329;48.816;44.624;2024-01-15T15:59:13;100951;;;-0.4;100
49583;BME280;36329;48.816;44.624;2024-01-15T16:02:15;100972;;;-0.4;100
49583;BME280;36329;48.816;44.624;2024-01-15T16:05:17;100957;;;-0.6;100
49583;BME280;36329;48.816;44.624;2024-01-15T16:08:20;100960;;;-0.4;100
49583;BME280;36329;48.816;44.624;2024-01-15T16:11:22;100964;;;-0.4;100
49583;BME280;36329;48.816;44.624;2024-01-15T16:14:25;100969;;;-0.6;100
49583;BME280;36329;48.816;44.624;2024-01-15T16:17:27;100965;;;-0.6;100
49583;BME280;36329;48.816;44.624;2024-01-15T16:20:30;100959;;;-0.5;100
49583;BME280;36329;48.816;44.624;2024-01-15T16:23:32;100963;;;-0.5;100
49583;BME280;36329;48.816;44.624;2024-01-15T16:26:34;100958;;;-0.6;100
49583;BME280;36329;48.816;44.624;2024-01-15T16:29:36;100941;;;-0.4;100
49583;BME280;36329;48.816;44.624;2024-01-15T16:32:38;100934;;;-0.3;100
49583;BME280;36329;48.816;44.624;2024-01-15T16:35:41;100924;;;-0.3;100
49583;BME280;36329;48.816;44.624;2024-01-15T16:38:44;100918;;;-0.3;100
49583;BME280;36329;48.816;44.624;2024-01-15T16:41:46;100929;;;-0.3;100
49583;BME280;36329;48.816;44.624;2024-01-15T16:44:49;100934;;;-0.3;100
49583;BME280;36329;48.816;44.624;2024-01-15T16:47:51;100936;;;-0.3;100
49583;BME280;36329;48.816;44.624;2024-01-15T16:50:54;100929;;;-0.5;100
49583;BME280;36329;48.816;44.624;2024-01-15T16:53:56;100931;;;-0.5;100
49583;BME280;36329;48.816;44.624;2024-01-15T16:56:58;100933;;;-0.3;100
49583;BME280;36329;48.816;44.624;2024-01-15T17:00:00;100925;;;-0.4;100
49583;BME280;36329;48.816;44.624;2024-01-15T17:03:03;100940;;;-0.4;100
49583;BME280;36329;48.816;44.624;2024-01-15T17:06:06;100941;;;-0.3;100